createdAt,value
2022-10-08T00:05:14.597Z,12.9
2022-10-08T00:07:19.889Z,12.9
2022-10-08T00:11:23.625Z,12.8
2022-10-08T00:13:25.306Z,12.8
2022-10-08T00:15:27.098Z,12.9
2022-10-08T00:17:28.883Z,12.9
2022-10-08T00:19:30.699Z,13
2022-10-08T00:21:36.180Z,13
2022-10-08T00:23:37.758Z,13
2022-10-08T00:25:39.573Z,13.1
2022-10-08T00:27:41.375Z,13.1
2022-10-08T00:31:45.021Z,13
2022-10-08T00:33:46.750Z,13
2022-10-08T00:35:52.016Z,13.1
2022-10-08T00:37:53.845Z,13.1
2022-10-08T00:39:55.625Z,13.1
2022-10-08T00:41:59.082Z,13.1
2022-10-08T00:44:00.823Z,13.1
2022-10-08T00:46:02.748Z,13.1
2022-10-08T00:48:04.404Z,13.1
2022-10-08T00:50:09.692Z,13
2022-10-08T00:52:11.473Z,13
2022-10-08T00:54:13.265Z,13
2022-10-08T00:55:15.921Z,13
2022-10-08T00:57:17.728Z,13
2022-10-08T01:01:21.409Z,13
2022-10-08T01:03:26.630Z,12.9
2022-10-08T01:11:33.858Z,12.5
2022-10-08T01:13:35.629Z,12.4
2022-10-08T01:15:37.424Z,12.3
2022-10-08T01:17:42.719Z,12.3
2022-10-08T01:19:44.507Z,12.3
2022-10-08T01:21:46.312Z,12.1
2022-10-08T01:23:48.117Z,12.2
2022-10-08T01:29:53.493Z,12.1
2022-10-08T01:38:04.157Z,12
2022-10-08T01:44:09.551Z,11.9
2022-10-08T01:46:14.899Z,11.9
2022-10-08T01:56:39.819Z,11.8
2022-10-08T02:00:46.925Z,11.8
2022-10-08T02:02:48.983Z,11.8
2022-10-08T02:04:50.436Z,11.8
2022-10-08T02:08:54.041Z,11.8
2022-10-08T02:15:02.855Z,11.7
2022-10-08T02:21:08.240Z,11.7
2022-10-08T02:23:10.021Z,11.7
2022-10-08T02:25:11.801Z,11.7
2022-10-08T02:27:17.542Z,11.7
2022-10-08T02:29:27.276Z,11.7
2022-10-08T02:31:20.751Z,11.7
2022-10-08T02:33:22.478Z,11.7
2022-10-08T02:35:24.258Z,11.7
2022-10-08T02:37:26.046Z,11.7
2022-10-08T02:39:27.832Z,11.7
2022-10-08T02:41:33.120Z,11.7
2022-10-08T02:43:34.891Z,11.7
2022-10-08T02:45:36.693Z,11.7
2022-10-08T02:48:41.081Z,11.7
2022-10-08T02:50:42.859Z,11.6
2022-10-08T02:52:45.114Z,11.7
2022-10-08T02:56:51.692Z,11.7
2022-10-08T02:58:53.485Z,11.6
2022-10-08T03:00:55.305Z,11.7
2022-10-08T03:02:57.105Z,11.7
2022-10-08T03:04:58.850Z,11.7
2022-10-08T03:07:00.618Z,11.7
2022-10-08T03:09:05.889Z,11.7
2022-10-08T03:11:07.683Z,11.7
2022-10-08T03:15:11.253Z,11.6
2022-10-08T03:17:13.013Z,11.6
2022-10-08T03:19:15.698Z,11.6
2022-10-08T03:25:23.575Z,11.6
2022-10-08T03:27:25.359Z,11.4
2022-10-08T03:31:28.909Z,11.3
2022-10-08T03:35:32.523Z,11.3
2022-10-08T03:37:39.573Z,11.2
2022-10-08T03:39:40.250Z,11.2
2022-10-08T03:41:41.345Z,11.2
2022-10-08T03:42:44.319Z,11.2
2022-10-08T03:44:45.748Z,11.3
2022-10-08T03:46:47.527Z,11.3
2022-10-08T03:48:49.335Z,11.4
2022-10-08T03:50:54.597Z,11.4
2022-10-08T03:54:58.157Z,11.6
2022-10-08T03:56:59.940Z,11.6
2022-10-08T03:59:01.720Z,11.6
2022-10-08T04:03:05.391Z,11.7
2022-10-08T04:05:10.568Z,11.7
2022-10-08T04:07:12.366Z,11.8
2022-10-08T04:09:14.165Z,11.8
2022-10-08T04:11:15.898Z,11.8
2022-10-08T04:13:17.714Z,11.9
2022-10-08T04:15:19.489Z,11.9
2022-10-08T04:23:30.092Z,11.8
2022-10-08T04:25:32.393Z,11.8
2022-10-08T04:27:33.789Z,11.8
2022-10-08T04:29:35.423Z,11.7
2022-10-08T04:31:37.186Z,11.8
2022-10-08T04:33:42.411Z,11.8
2022-10-08T04:35:44.209Z,11.7
2022-10-08T04:38:48.612Z,11.8
2022-10-08T04:40:50.397Z,11.8
2022-10-08T04:42:52.141Z,11.7
2022-10-08T04:44:53.902Z,11.8
2022-10-08T04:49:00.977Z,11.6
2022-10-08T04:51:08.056Z,11.6
2022-10-08T04:53:05.022Z,11.7
2022-10-08T04:59:09.819Z,11.5
2022-10-08T05:01:15.146Z,11.4
2022-10-08T05:03:16.854Z,11.3
2022-10-08T05:05:18.619Z,11.3
2022-10-08T05:07:20.371Z,11.2
2022-10-08T05:11:23.911Z,11.2
2022-10-08T05:13:25.683Z,11.3
2022-10-08T05:17:32.785Z,11
2022-10-08T05:19:34.638Z,11.1
2022-10-08T05:23:38.151Z,11
2022-10-08T05:25:39.932Z,11
2022-10-08T05:27:41.810Z,11.1
2022-10-08T05:31:48.891Z,11
2022-10-08T05:33:50.636Z,11.1
2022-10-08T05:36:08.960Z,11.1
2022-10-08T05:40:12.256Z,11
2022-10-08T05:42:17.477Z,10.8
2022-10-08T05:44:19.335Z,10.8
2022-10-08T05:46:21.121Z,10.8
2022-10-08T05:56:33.842Z,10.8
2022-10-08T05:58:35.690Z,10.7
2022-10-08T06:00:37.558Z,10.7
2022-10-08T06:02:39.468Z,10.7
2022-10-08T06:04:41.367Z,10.6
2022-10-08T06:08:44.971Z,10.7
2022-10-08T06:10:50.433Z,10.7
2022-10-08T06:16:55.922Z,10.8
2022-10-08T06:18:57.718Z,10.7
2022-10-08T06:20:59.573Z,10.7
2022-10-08T06:23:01.437Z,10.7
2022-10-08T06:29:10.551Z,10.7
2022-10-08T06:30:13.267Z,10.7
2022-10-08T06:32:16.691Z,10.7
2022-10-08T06:34:18.401Z,10.8
2022-10-08T06:36:20.142Z,10.8
2022-10-08T06:38:25.391Z,10.8
2022-10-08T06:40:27.190Z,10.9
2022-10-08T06:42:28.899Z,10.9
2022-10-08T06:46:32.900Z,11
2022-10-08T06:48:34.342Z,11
2022-10-08T06:50:36.058Z,11
2022-10-08T06:54:43.087Z,11.1
2022-10-08T06:56:44.825Z,11.2
2022-10-08T06:58:46.580Z,11.2
2022-10-08T07:00:48.417Z,11.2
2022-10-08T07:02:50.384Z,11.3
2022-10-08T07:06:57.214Z,11.4
2022-10-08T07:08:59.087Z,11.4
2022-10-08T07:11:00.944Z,11.4
2022-10-08T07:13:02.807Z,11.4
2022-10-08T07:15:04.642Z,11.5
2022-10-08T07:19:08.334Z,11.7
2022-10-08T07:21:13.758Z,12.3
2022-10-08T07:23:15.601Z,12.3
2022-10-08T07:25:17.466Z,12.4
2022-10-08T07:26:20.168Z,13.3
2022-10-08T07:28:22.113Z,13.7
2022-10-08T07:30:23.881Z,14.1
2022-10-08T07:32:25.633Z,13.9
2022-10-08T07:34:30.869Z,14.3
2022-10-08T07:36:32.651Z,14.3
2022-10-08T07:38:34.416Z,14.6
2022-10-08T07:40:36.199Z,14.5
2022-10-08T07:44:39.778Z,15
2022-10-08T07:46:41.578Z,15.1
2022-10-08T07:50:48.639Z,14.9
2022-10-08T07:52:50.480Z,14.8
2022-10-08T07:54:52.248Z,15.1
2022-10-08T07:56:54.035Z,15.1
2022-10-08T07:58:55.853Z,15.2
2022-10-08T08:03:02.923Z,15.4
2022-10-08T08:05:04.768Z,15.6
2022-10-08T08:07:06.564Z,14.6
2022-10-08T08:09:08.326Z,14
2022-10-08T08:11:10.124Z,14.6
2022-10-08T08:15:13.701Z,14.1
2022-10-08T08:19:20.807Z,14
2022-10-08T08:21:22.558Z,14
2022-10-08T08:26:28.764Z,13.4
2022-10-08T08:32:37.651Z,15.7
2022-10-08T08:34:39.478Z,16.3
2022-10-08T08:36:41.270Z,16.8
2022-10-08T08:38:43.046Z,15.3
2022-10-08T08:40:44.862Z,14.4
2022-10-08T08:42:46.926Z,13.9
2022-10-08T08:44:51.939Z,14
2022-10-08T08:46:53.769Z,13.9
2022-10-08T08:48:55.556Z,14.1
2022-10-08T08:50:57.353Z,14.2
2022-10-08T08:52:59.154Z,14.3
2022-10-08T08:55:00.936Z,14.5
2022-10-08T08:57:02.709Z,14.6
2022-10-08T08:59:08.012Z,14.7
2022-10-08T09:01:09.912Z,14.8
2022-10-08T09:03:11.588Z,14.9
2022-10-08T09:05:13.470Z,14.8
2022-10-08T09:09:16.992Z,14.5
2022-10-08T09:11:18.764Z,14.8
2022-10-08T09:13:24.062Z,15.2
2022-10-08T09:15:25.809Z,15.3
2022-10-08T09:17:27.626Z,15.3
2022-10-08T09:19:51.547Z,15
2022-10-08T09:21:53.323Z,15
2022-10-08T09:23:55.116Z,15.2
2022-10-08T09:26:00.404Z,15.3
2022-10-08T09:28:02.265Z,15.4
2022-10-08T09:30:04.086Z,15.1
2022-10-08T09:32:05.832Z,14.4
2022-10-08T09:34:07.620Z,14.4
2022-10-08T09:36:09.397Z,14.5
2022-10-08T09:38:11.187Z,14.3
2022-10-08T09:44:20.064Z,14.9
2022-10-08T09:46:21.867Z,14.7
2022-10-08T09:48:23.628Z,15.2
2022-10-08T09:50:25.549Z,15.3
2022-10-08T09:52:27.227Z,15.4
2022-10-08T09:54:32.526Z,16.2
2022-10-08T09:56:34.329Z,16.5
2022-10-08T10:00:37.929Z,15.6
2022-10-08T10:02:39.727Z,15.4
2022-10-08T10:04:41.516Z,15.4
2022-10-08T10:10:50.402Z,16.2
2022-10-08T10:12:52.216Z,16.7
2022-10-08T10:13:54.845Z,16.4
2022-10-08T10:15:56.636Z,16.4
2022-10-08T10:17:58.436Z,16.4
2022-10-08T10:20:00.244Z,16.8
2022-10-08T10:22:05.549Z,16.6
2022-10-08T10:24:07.343Z,16.9
2022-10-08T10:26:09.161Z,16.8
2022-10-08T10:28:10.993Z,16.3
2022-10-08T10:30:12.752Z,15.6
2022-10-08T10:32:15.010Z,15.3
2022-10-08T10:34:16.409Z,15.6
2022-10-08T10:36:21.673Z,15.9
2022-10-08T10:38:23.493Z,15.7
2022-10-08T10:40:25.285Z,15.5
2022-10-08T10:42:27.061Z,15.3
2022-10-08T10:44:28.907Z,15.7
2022-10-08T10:48:32.531Z,16.8
2022-10-08T10:50:37.826Z,16.4
2022-10-08T10:52:39.627Z,16.1
2022-10-08T10:54:41.425Z,16.7
2022-10-08T11:00:46.840Z,18.5
2022-10-08T11:02:48.925Z,19.2
2022-10-08T11:04:57.061Z,19.2
2022-10-08T11:06:55.827Z,19.1
2022-10-08T11:08:57.568Z,20.9
2022-10-08T11:10:00.218Z,22
2022-10-08T11:12:02.096Z,22.6
2022-10-08T11:18:10.920Z,18.1
2022-10-08T11:20:12.736Z,17.4
2022-10-08T11:26:22.703Z,15.2
2022-10-08T11:28:20.093Z,15.1
2022-10-08T11:30:21.738Z,14.9
2022-10-08T11:32:27.019Z,16.1
2022-10-08T11:34:28.844Z,18.1
2022-10-08T11:36:32.963Z,20.3
2022-10-08T11:38:32.446Z,21.2
2022-10-08T11:40:34.260Z,22
2022-10-08T11:42:48.191Z,22.5
2022-10-08T11:44:37.875Z,22.1
2022-10-08T11:46:43.260Z,22.6
2022-10-08T11:48:44.999Z,22.9
2022-10-08T11:50:46.788Z,21.1
2022-10-08T11:52:49.124Z,18.2
2022-10-08T11:54:54.502Z,16.7
2022-10-08T11:56:52.228Z,18.2
2022-10-08T11:58:54.000Z,17.6
2022-10-08T12:00:59.305Z,17.3
2022-10-08T12:03:01.316Z,19.2
2022-10-08T12:06:05.533Z,21.6
2022-10-08T12:08:07.356Z,21.5
2022-10-08T12:10:09.161Z,21.4
2022-10-08T12:12:11.013Z,22.8
2022-10-08T12:14:16.259Z,22.4
2022-10-08T12:16:18.138Z,22.2
2022-10-08T12:18:23.748Z,22.1
2022-10-08T12:24:26.916Z,22.1
2022-10-08T12:26:28.673Z,22.1
2022-10-08T12:28:34.049Z,22.6
2022-10-08T12:30:35.755Z,22.9
2022-10-08T12:32:37.568Z,23
2022-10-08T12:34:39.356Z,24.4
2022-10-08T12:36:41.178Z,24.6
2022-10-08T12:40:44.778Z,22.9
2022-10-08T12:46:53.722Z,18.8
2022-10-08T12:48:55.487Z,17.3
2022-10-08T12:50:57.269Z,19.8
2022-10-08T12:52:59.096Z,20.2
2022-10-08T12:55:00.894Z,22
2022-10-08T12:57:06.199Z,22.1
2022-10-08T12:59:08.011Z,22.5
2022-10-08T13:01:09.856Z,23.4
2022-10-08T13:17:47.392Z,20.5
2022-10-08T13:19:49.082Z,20.5
2022-10-08T13:21:50.780Z,20.5
2022-10-08T13:25:57.855Z,19.7
2022-10-08T13:27:59.666Z,19.2
2022-10-08T13:30:01.575Z,18.7
2022-10-08T13:32:03.347Z,18.5
2022-10-08T13:34:05.091Z,17.7
2022-10-08T13:36:06.912Z,17
2022-10-08T13:40:13.998Z,16.4
2022-10-08T13:42:15.829Z,16.1
2022-10-08T13:44:17.618Z,15.9
2022-10-08T13:46:19.525Z,15.8
2022-10-08T13:48:21.252Z,15.6
2022-10-08T13:52:28.368Z,16
2022-10-08T13:56:32.021Z,16
2022-10-08T13:57:34.660Z,16.6
2022-10-08T13:59:36.489Z,16.8
2022-10-08T14:01:38.336Z,17
2022-10-08T14:03:40.132Z,17.6
2022-10-08T14:07:47.564Z,18.1
2022-10-08T14:09:49.070Z,18.2
2022-10-08T14:11:50.914Z,18.1
2022-10-08T14:13:52.702Z,18.1
2022-10-08T14:17:56.308Z,18.4
2022-10-08T14:22:03.472Z,18.5
2022-10-08T14:24:05.252Z,17.8
2022-10-08T14:26:07.056Z,17.6
2022-10-08T14:28:08.882Z,17.8
2022-10-08T14:32:12.507Z,17.7
2022-10-08T14:34:17.815Z,17.4
2022-10-08T14:36:19.621Z,17.3
2022-10-08T14:46:28.694Z,17.4
2022-10-08T14:48:33.979Z,17.7
2022-10-08T14:52:41.866Z,17.5
2022-10-08T14:53:40.263Z,17.4
2022-10-08T14:56:07.421Z,17.5
2022-10-08T14:57:43.891Z,17.4
2022-10-08T15:01:51.120Z,17.3
2022-10-08T15:03:52.910Z,17.1
2022-10-08T15:05:54.681Z,17.2
2022-10-08T15:09:58.297Z,16.6
2022-10-08T15:14:01.929Z,16.9
2022-10-08T15:16:07.271Z,17.6
2022-10-08T15:18:09.058Z,17.3
2022-10-08T15:20:10.874Z,16.9
2022-10-08T15:28:18.211Z,17.2
2022-10-08T15:30:23.416Z,17.2
2022-10-08T15:32:29.643Z,17.2
2022-10-08T15:36:28.907Z,16.6
2022-10-08T15:38:30.722Z,16.3
2022-10-08T15:40:32.645Z,16.3
2022-10-08T15:42:34.338Z,16.1
2022-10-08T15:44:39.636Z,16
2022-10-08T15:51:47.745Z,15.6
2022-10-08T15:53:49.588Z,15.5
2022-10-08T15:55:51.361Z,15.4
2022-10-08T15:57:56.669Z,15.2
2022-10-08T15:59:58.473Z,15.2
2022-10-08T16:02:00.361Z,14.9
2022-10-08T16:04:02.175Z,14.7
2022-10-08T16:06:03.909Z,14.6
2022-10-08T16:10:07.663Z,14.4
2022-10-08T16:12:12.904Z,14.2
2022-10-08T16:14:14.730Z,14.2
2022-10-08T16:18:18.394Z,14.1
2022-10-08T16:20:20.191Z,14
2022-10-08T16:22:22.009Z,13.8
2022-10-08T16:24:23.861Z,13.8
2022-10-08T16:26:29.129Z,13.8
2022-10-08T16:28:31.174Z,13.7
2022-10-08T16:30:32.826Z,13.7
2022-10-08T16:32:34.609Z,13.5
2022-10-08T16:34:36.385Z,13.5
2022-10-08T16:38:40.015Z,13.5
2022-10-08T16:40:45.327Z,13.4
2022-10-08T16:42:47.391Z,13.3
2022-10-08T16:51:10.390Z,13.1
2022-10-08T16:53:15.688Z,13.1
2022-10-08T16:55:17.495Z,13
2022-10-08T16:57:19.300Z,13
2022-10-08T16:59:21.104Z,12.9
2022-10-08T17:03:24.741Z,12.8
2022-10-08T17:05:26.555Z,12.7
2022-10-08T17:07:31.911Z,12.6
2022-10-08T17:09:33.686Z,12.6
2022-10-08T17:11:35.491Z,12.4
2022-10-08T17:15:39.146Z,12.4
2022-10-08T17:19:42.748Z,12.1
2022-10-08T17:21:47.983Z,12
2022-10-08T17:23:49.808Z,12
2022-10-08T17:27:53.400Z,11.7
2022-10-08T17:31:56.998Z,11.5
2022-10-08T17:33:58.811Z,11.5
2022-10-08T17:43:12.173Z,11.2
2022-10-08T17:49:21.043Z,11.3
2022-10-08T17:51:22.852Z,11.3
2022-10-08T17:53:24.726Z,11.2
2022-10-08T17:57:28.266Z,11.2
2022-10-08T17:59:30.034Z,11.4
2022-10-08T18:01:31.937Z,11.2
2022-10-08T18:05:38.923Z,11.2
2022-10-08T18:07:40.727Z,11.2
2022-10-08T18:09:42.500Z,11.1
2022-10-08T18:11:44.294Z,10.9
2022-10-08T18:13:46.107Z,10.8
2022-10-08T18:15:49.585Z,10.7
2022-10-08T18:17:54.745Z,10.6
2022-10-08T18:21:58.318Z,10.6
2022-10-08T18:24:00.086Z,10.5
2022-10-08T18:26:01.849Z,10.5
2022-10-08T18:28:03.666Z,10.5
2022-10-08T18:34:12.464Z,10.2
2022-10-08T18:36:14.333Z,10.2
2022-10-08T18:39:18.946Z,10.4
2022-10-08T18:41:20.797Z,10.4
2022-10-08T18:47:29.974Z,10.3
2022-10-08T18:49:31.812Z,10.1
2022-10-08T18:53:35.337Z,9.9
2022-10-08T18:55:37.191Z,10
2022-10-08T18:57:39.062Z,10
2022-10-08T19:01:46.237Z,9.9
2022-10-08T19:03:47.875Z,9.8
2022-10-08T19:05:49.615Z,9.7
2022-10-08T19:09:53.320Z,9.8
2022-10-08T19:16:02.317Z,9.6
2022-10-08T19:18:04.097Z,9.6
2022-10-08T19:26:11.211Z,9.5
2022-10-08T19:30:22.448Z,9.4
2022-10-08T19:33:22.903Z,9.4
2022-10-08T19:41:33.802Z,9.3
2022-10-08T19:45:37.469Z,9.3
2022-10-08T19:49:41.112Z,9.2
2022-10-08T19:51:42.934Z,9.1
2022-10-08T19:53:44.903Z,9.1
2022-10-08T19:57:52.027Z,9.1
2022-10-08T20:01:55.737Z,9.1
2022-10-08T20:03:57.552Z,9
2022-10-08T20:05:59.369Z,9.2
2022-10-08T20:10:06.599Z,9.3
2022-10-08T20:12:08.441Z,9.2
2022-10-08T20:14:10.276Z,9.1
2022-10-08T20:18:13.913Z,9
2022-10-08T20:28:26.703Z,9
2022-10-08T20:32:39.335Z,9.1
2022-10-08T20:34:41.075Z,9
2022-10-08T20:40:49.081Z,8.8
2022-10-08T20:42:59.728Z,8.8
2022-10-08T20:52:09.772Z,8.7
2022-10-08T20:56:13.341Z,8.6
2022-10-08T20:58:23.952Z,8.6
2022-10-08T21:02:27.649Z,8.5
2022-10-08T21:14:09.227Z,8.5
2022-10-08T21:18:12.864Z,8.3
2022-10-08T21:32:39.734Z,8.1
2022-10-08T21:57:28.278Z,7.9
2022-10-08T21:59:29.955Z,7.8
2022-10-08T22:17:16.889Z,7.9
2022-10-08T22:19:18.684Z,7.9
2022-10-08T22:21:23.167Z,7.9
2022-10-08T22:23:25.099Z,7.9
2022-10-08T22:25:26.785Z,7.9
2022-10-08T22:27:31.281Z,7.9
2022-10-08T22:31:34.984Z,7.8
2022-10-08T22:33:39.402Z,7.7
2022-10-08T22:35:41.197Z,7.7
2022-10-08T22:37:42.995Z,7.7
2022-10-08T22:39:47.485Z,7.7
2022-10-08T22:43:51.100Z,7.7
2022-10-08T22:45:55.640Z,7.6
2022-10-08T22:49:59.205Z,7.6
2022-10-08T22:56:07.286Z,7.5
2022-10-08T22:58:11.791Z,7.5
2022-10-08T23:02:15.502Z,7.5
2022-10-08T23:13:57.380Z,7.4
2022-10-08T23:18:00.973Z,7.3
2022-10-08T23:34:39.204Z,7
2022-10-08T23:36:40.993Z,7
2022-10-08T23:48:32.882Z,7
2022-10-08T23:52:36.437Z,7
2022-10-08T23:54:40.911Z,6.9
